Time;durP1;ratioP1;P1;durP2;ratioP2;P2;SDS_P1;SDS_P2;PMS_P1;PMS_P2;Temp;Humidity;BMP_temperature;BMP_pressure;BME280_temperature;BME280_humidity;BME280_pressure;Samples;Min_cycle;Max_cycle;Signal;HPM_P1;HPM_P2
2021/07/14 08:57:21;;;;;;;;;;;;;;;;;;1053275;27;113596;-68
2021/07/14 08:59:10;;;;;;;;;;;;;;;;;;1053233;27;113787;-66
2021/07/14 08:59:41;;;;;;;;;;;;;;;;;;1045181;27;113875;-71
2021/07/14 09:00:13;;;;;;;;;;;;;;;;;;1037947;28;116556;-73
2021/07/14 09:00:44;;;;;;;;;;;;;;;;;;1036436;28;113815;-68
2021/07/14 09:01:15;;;;;;;;;;;;;;;;;;1042210;27;116657;-69
2021/07/14 09:01:46;;;;;;;;;;;;;;;;;;1031686;28;113846;-66
2021/07/14 09:02:17;;;;;;;;;;;;;;;;;;1028666;28;113953;-68
2021/07/14 09:02:49;;;;;;;;;;;;;;;;;;1032352;28;114002;-66
2021/07/14 09:03:20;;;;;;;;;;;;;;;;;;1033438;28;114094;-71
2021/07/14 09:03:51;;;;;;;;;;;;;;;;;;1029977;27;114736;-66
2021/07/14 09:04:23;;;;;;;;;;;;;;;;;;1036546;27;116357;-69
2021/07/14 09:04:57;;;;;;;;;;;;;;;;;;1033025;28;114198;-66
2021/07/14 09:05:28;;;;;;;;;;;;;;;;;;1034611;28;113768;-61
2021/07/14 09:06:00;;;;;;;;;;;;;;;;;;1038464;27;114035;-60
2021/07/14 09:06:31;;;;;;;;;;;;;;;;;;1035784;27;117450;-64
2021/07/14 09:07:02;;;;;;;;;;;;;;;;;;1045569;27;114264;-62
2021/07/14 09:07:34;;;;;;;;;;;;;;;;;;1032943;28;116391;-61
2021/07/14 09:08:05;;;;;;;;;;;;;;;;;;1037385;27;113988;-65
2021/07/14 09:09:12;;;;;;;;;;;;;;;;;;1051751;27;114221;-67
2021/07/14 09:09:43;;;;;;;;;;;;;;;;;;1036736;27;113932;-67
2021/07/14 09:10:14;;;;;;;;;;;;;;;;;;1029760;28;116285;-70
2021/07/14 09:10:46;;;;;;;;;;;;;;;;;;1032501;28;114131;-75
2021/07/14 09:11:18;;;;;;;;;;;;;;;;;;1037017;27;113888;-62
2021/07/14 09:11:52;;;;;;;;;;;;;;;;;;1027925;28;113976;-63
2021/07/14 09:12:33;;;;;;;;;;;;;;;;;;1026928;28;115202;-61
2021/07/14 09:16:34;;;;;;;;;;;;;;;;;;1049779;27;113680;-76
2021/07/14 09:17:19;;;;;;;8.82;3.70;;;;;;;;;;1032559;28;115546;-61
2021/07/14 09:20:19;;;;;;;;;;;;;;;;;;1047774;27;113795;-66
2021/07/14 09:20:53;;;;;;;;;;;;;;;;;;1041473;27;113740;-70
2021/07/14 09:21:25;;;;;;;;;;;;;;;;;;1039480;27;114283;-69
2021/07/14 09:21:57;;;;;;;14.07;4.57;;;;;;;;;;1040884;27;113970;-66
2021/07/14 09:22:32;;;;;;;10.80;4.20;;;;;;;;;;1038308;27;115714;-70
2021/07/14 09:23:30;;;;;;;7.75;4.50;;;;;;;;;;1027431;28;114694;-72
2021/07/14 09:24:26;;;;;;;7.50;4.25;;;;;;;;;;1024212;28;116263;-66
2021/07/14 09:24:57;;;;;;;8.05;4.40;;;;;;;;;;1023640;28;114457;-69
2021/07/14 09:25:29;;;;;;;7.20;4.60;;;;;;;;;;1025739;28;116171;-70
2021/07/14 09:26:02;;;;;;;8.98;4.28;;;;;;;;;;1023895;28;114351;-67
2021/07/14 09:26:33;;;;;;;9.02;4.63;;;;;;;;;;1028721;28;117000;-66
2021/07/14 09:27:04;;;;;;;9.40;4.28;;;;;;;;;;1024121;28;114397;-70
2021/07/14 09:27:36;;;;;;;6.85;4.40;;;;;;;;;;1019046;28;117540;-66
2021/07/14 09:28:08;;;;;;;12.40;4.60;;;;;;;;;;1021906;28;113923;-63
2021/07/14 09:28:41;;;;;;;8.27;4.63;;;;;;;;;;1020810;28;115091;-64
2021/07/14 09:29:12;;;;;;;8.48;4.30;;;;;;;;;;1020539;28;114287;-65
2021/07/14 09:30:12;;;;;;;9.52;4.13;;;;;;;;;;1026543;28;115502;-68
2021/07/14 09:30:45;;;;;;;7.75;4.45;;;;;;;;;;1027186;28;114186;-67
2021/07/14 09:31:18;;;;;;;11.10;4.63;;;;;;;;;;1025609;28;116130;-66
2021/07/14 09:31:50;;;;;;;7.88;4.90;;;;;;;;;;1016102;28;113680;-66
2021/07/14 09:32:21;;;;;;;10.88;4.75;;;;;;;;;;1020744;28;116155;-68
2021/07/14 09:32:58;;;;;;;7.30;4.43;;;;;;;;;;1017575;28;113839;-69
2021/07/14 09:33:29;;;;;;;8.70;4.38;;;;;;;;;;1025221;28;113685;-67
2021/07/14 09:34:00;;;;;;;8.80;4.45;;;;;;;;;;1022345;28;114230;-69
2021/07/14 09:34:32;;;;;;;9.18;4.60;;;;;;;;;;1027058;28;116961;-68
2021/07/14 09:35:03;;;;;;;10.35;4.32;;;;;;;;;;1026527;28;114594;-66
2021/07/14 09:35:38;;;;;;;9.23;4.78;;;;;;;;;;1022569;28;114519;-66
2021/07/14 09:36:10;;;;;;;9.02;4.65;;;;;;;;;;1020219;28;114382;-65
2021/07/14 09:36:46;;;;;;;6.72;4.07;;;;;;;;;;1017642;28;114535;-66
2021/07/14 09:37:17;;;;;;;7.60;4.50;;;;;;;;;;1016212;28;114018;-66
2021/07/14 09:37:48;;;;;;;7.45;4.43;;;;;;;;;;1021073;28;114142;-67
2021/07/14 09:38:28;;;;;;;11.52;4.75;;;;;;;;;;1018097;28;113843;-66
2021/07/14 09:39:04;;;;;;;9.27;5.13;;;;;;;;;;1020274;28;116624;-72
2021/07/14 09:39:38;;;;;;;8.02;4.80;;;;;;;;;;1020069;28;113831;-68
2021/07/14 09:40:17;;;;;;;7.80;4.65;;;;;;;;;;1025071;28;114276;-68
2021/07/14 09:40:59;;;;;;;8.10;4.50;;;;;;;;;;1022142;28;113826;-67
2021/07/14 09:41:35;;;;;;;7.47;4.53;;;;;;;;;;1029162;28;113687;-67
2021/07/14 09:42:09;;;;;;;7.15;4.47;;;;;;;;;;1026537;28;114411;-67
2021/07/14 09:42:59;;;;;;;7.60;4.70;;;;;;;;;;1019562;28;114110;-67
2021/07/14 09:43:39;;;;;;;6.95;4.22;;;;;;;;;;1013359;28;114034;-69
2021/07/14 09:44:22;;;;;;;10.97;4.67;;;;;;;;;;1021201;28;115288;-74
2021/07/14 09:44:55;;;;;;;8.52;4.50;;;;;;;;;;1016452;28;113807;-68
2021/07/14 09:45:35;;;;;;;8.55;4.60;;;;;;;;;;1024818;28;114159;-67
2021/07/14 09:46:11;;;;;;;7.07;4.57;;;;;;;;;;1019156;28;114053;-67
2021/07/14 09:47:10;;;;;;;6.70;4.32;;;;;;;;;;1027127;28;114375;-68
2021/07/14 09:47:43;;;;;;;8.82;4.38;;;;;;;;;;1019914;28;113953;-66
2021/07/14 09:48:40;;;;;;;10.38;4.40;;;;;;;;;;1012831;28;115375;-69
2021/07/14 09:49:14;;;;;;;9.88;4.18;;;;;;;;;;1008166;28;113798;-70
2021/07/14 09:49:47;;;;;;;10.93;4.70;;;;;;;;;;1015587;28;116242;-69
2021/07/14 09:50:30;;;;;;;6.97;4.43;;;;;;;;;;1020735;28;114116;-67
2021/07/14 09:51:03;;;;;;;7.72;4.72;;;;;;;;;;1024673;28;118023;-70
2021/07/14 09:51:34;;;;;;;7.35;4.25;;;;;;;;;;1026978;28;113919;-68
2021/07/14 09:52:08;;;;;;;8.52;4.35;;;;;;;;;;1022958;28;115331;-67
2021/07/14 09:52:59;;;;;;;9.88;4.93;;;;;;;;;;1021966;28;113786;-67
2021/07/14 09:53:31;;;;;;;;;;;;;;;;;;1028702;28;116611;-66
2021/07/14 09:54:06;;;;;;;10.77;4.53;;;;;;;;;;1022887;28;114407;-67
2021/07/14 09:54:37;;;;;;;8.00;4.50;;;;;;;;;;1021080;28;113945;-71
2021/07/14 09:55:09;;;;;;;9.80;4.57;;;;;;;;;;1023837;28;113913;-64
2021/07/14 09:55:41;;;;;;;10.18;4.72;;;;;;;;;;1020890;28;113729;-67
2021/07/14 09:56:41;;;;;;;7.85;4.80;;;;;;;;;;1024541;28;113868;-68
2021/07/14 09:57:18;;;;;;;8.02;4.60;;;;;;;;;;1023213;28;115586;-67
2021/07/14 09:57:49;;;;;;;7.15;4.47;;;;;;;;;;1021936;28;114185;-65
2021/07/14 09:58:28;;;;;;;9.38;4.93;;;;;;;;;;1020937;28;115769;-65
2021/07/14 09:59:04;;;;;;;7.65;4.57;;;;;;;;;;1016556;28;114142;-68
2021/07/14 09:59:35;;;;;;;9.75;4.60;;;;;;;;;;1018774;28;114574;-61
2021/07/14 10:00:19;;;;;;;6.90;4.53;;;;;;;;;;1015219;28;114008;-61
2021/07/14 10:00:59;;;;;;;7.45;4.57;;;;;;;;;;1023772;28;116044;-66
2021/07/14 10:01:49;;;;;;;6.68;4.63;;;;;;;;;;1019829;28;114629;-67
2021/07/14 10:02:20;;;;;;;11.13;4.63;;;;;;;;;;1013134;28;113711;-66
2021/07/14 10:03:00;;;;;;;6.25;4.47;;;;;;;;;;1020054;28;113956;-64
2021/07/14 10:03:38;;;;;;;6.95;4.47;;;;;;;;;;1015584;28;115961;-66
2021/07/14 10:04:12;;;;;;;9.73;4.63;;;;;;;;;;1015246;28;113922;-69
2021/07/14 10:04:46;;;;;;;6.07;4.40;;;;;;;;;;1018264;28;113805;-66
2021/07/14 10:05:18;;;;;;;7.65;4.20;;;;;;;;;;1015778;28;113924;-66
2021/07/14 10:05:49;;;;;;;10.13;4.95;;;;;;;;;;1017720;28;114007;-68
2021/07/14 10:06:26;;;;;;;9.68;4.90;;;;;;;;;;1024178;28;114235;-66
2021/07/14 10:07:18;;;;;;;8.48;4.63;;;;;;;;;;1032195;28;113994;-67
2021/07/14 10:07:50;;;;;;;8.60;4.65;;;;;;;;;;1025512;28;113970;-68
2021/07/14 10:08:22;;;;;;;11.57;4.80;;;;;;;;;;1018446;28;115278;-66
2021/07/14 10:08:53;;;;;;;8.35;4.63;;;;;;;;;;1024667;28;113956;-66
2021/07/14 10:09:24;;;;;;;7.97;4.90;;;;;;;;;;1026304;28;113821;-63
2021/07/14 10:09:57;;;;;;;8.57;4.60;;;;;;;;;;1014151;28;113848;-63
2021/07/14 10:10:28;;;;;;;9.15;4.22;;;;;;;;;;1012763;28;114004;-71
2021/07/14 10:57:05;;;;;;;6.78;4.20;;;;;;;;;;521077;28;99271;-62
2021/07/14 10:57:21;;;;;;;7.35;4.15;;;;;;;;;;519121;28;100903;-60
2021/07/14 10:57:38;;;;;;;10.88;4.47;;;;;;;;;;519843;28;100662;-60
2021/07/14 10:57:55;;;;;;;11.00;4.32;;;;;;;;;;517837;28;100138;-62
2021/07/14 10:58:15;;;;;;;9.35;4.10;;;;;;;;;;518340;28;99648;-61
2021/07/14 10:58:32;;;;;;;9.02;4.18;;;;;;;;;;517878;28;100625;-59
2021/07/14 10:58:50;;;;;;;9.40;4.03;;;;;;;;;;517450;28;100518;-61
2021/07/14 10:59:08;;;;;;;10.20;3.85;;;;;;;;;;515511;28;99965;-60
2021/07/14 10:59:25;;;;;;;8.13;3.90;;;;;;;;;;516727;28;99311;-60
2021/07/14 10:59:41;;;;;;;6.88;3.90;;;;;;;;;;520662;28;100947;-59
2021/07/14 10:59:59;;;;;;;7.53;3.80;;;;;;;;;;519531;28;101801;-65
2021/07/14 11:00:16;;;;;;;8.23;3.92;;;;;;;;;;519833;28;100065;-58
2021/07/14 11:00:42;;;;;;;9.23;4.00;;;;;;;;;;520222;28;99696;-66
2021/07/14 11:00:59;;;;;;;8.60;3.92;;;;;;;;;;520441;28;101060;-64
2021/07/14 11:01:37;;;;;;;9.82;3.97;;;;;;;;;;519678;28;101647;-65
2021/07/14 11:01:55;;;;;;;9.18;3.80;;;;;;;;;;519568;28;99987;-60
2021/07/14 11:02:15;;;;;;;8.32;3.60;;;;;;;;;;520458;28;99222;-59
2021/07/14 11:02:43;;;;;;;8.00;3.70;;;;;;;;;;520533;28;102255;-60
2021/07/14 11:03:00;;;;;;;8.33;3.70;;;;;;;;;;520096;28;101646;-63
2021/07/14 11:03:24;;;;;;;8.88;3.60;;;;;;;;;;519591;28;99878;-59
2021/07/14 11:03:44;;;;;;;8.13;3.60;;;;;;;;;;520386;28;99352;-60
2021/07/14 11:04:01;;;;;;;7.53;3.80;;;;;;;;;;520565;28;101039;-68
2021/07/14 11:04:26;;;;;;;8.82;4.00;;;;;;;;;;519992;28;100471;-60
2021/07/14 11:04:43;;;;;;;8.13;3.70;;;;;;;;;;519866;28;99833;-64
2021/07/14 11:04:59;;;;;;;9.65;3.60;;;;;;;;;;520289;28;99376;-61
